Time;durP1;ratioP1;P1;durP2;ratioP2;P2;SDS_P1;SDS_P2;PMS_P1;PMS_P2;Temp;Humidity;BMP_temperature;BMP_pressure;BME280_temperature;BME280_humidity;BME280_pressure;Samples;Min_cycle;Max_cycle;Signal;HPM_P1;HPM_P2
2022/11/05 00:09:29;;;;;;;;;;;;;;;8.77;100.00;99633.75;5574904;31;34630;-71
2022/11/05 00:19:26;;;;;;;;;;;;;;;8.52;100.00;99627.78;5575529;31;35079;-71
2022/11/05 00:25:58;;;;;;;;;;;;;;;8.48;100.00;99634.38;5589417;31;34273;-72
2022/11/05 00:29:04;;;;;;;;;;;;;;;8.40;100.00;99618.56;5589329;31;34202;-71
2022/11/05 00:32:12;;;;;;;;;;;;;;;8.33;100.00;99622.91;5575616;31;34321;-72
2022/11/05 00:35:20;;;;;;;;;;;;;;;8.27;100.00;99619.94;5589402;31;34296;-72
2022/11/05 00:38:28;;;;;;;;;;;;;;;8.25;100.00;99616.62;5589261;31;34941;-75
2022/11/05 00:41:32;;;;;;;;;;;;;;;8.17;100.00;99608.75;5575311;31;35298;-75
2022/11/05 00:51:38;;;;;;;;;;;;;;;8.02;100.00;99609.63;5574554;31;34555;-71
2022/11/05 00:54:47;;;;;;;;;;;;;;;7.98;100.00;99608.31;5575172;31;33550;-72
2022/11/05 00:57:55;;;;;;;;;;;;;;;7.94;100.00;99622.84;5574625;31;34851;-72
2022/11/05 01:01:03;;;;;;;;;;;;;;;7.93;100.00;99611.47;5588913;31;34927;-72
2022/11/05 01:04:11;;;;;;;;;;;;;;;7.88;100.00;99619.06;5588768;31;34559;-72
2022/11/05 01:07:17;;;;;;;;;;;;;;;7.92;100.00;99622.19;5588465;31;34302;-72
2022/11/05 01:10:31;;;;;;;;;;;;;;;7.90;100.00;99616.25;5588609;31;34872;-72
2022/11/05 01:13:37;;;;;;;;;;;;;;;7.87;100.00;99626.16;5574508;31;34053;-73
2022/11/05 01:16:45;;;;;;;;;;;;;;;7.86;100.00;99628.97;5588427;31;34397;-71
2022/11/05 01:19:54;;;;;;;;;;;;;;;7.82;100.00;99625.84;5590345;31;34314;-71
2022/11/05 01:23:02;;;;;;;;;;;;;;;7.79;100.00;99617.44;5591195;31;34207;-71
2022/11/05 01:26:18;;;;;;;;;;;;;;;7.81;100.00;99620.72;5591215;31;34169;-72
2022/11/05 01:29:24;;;;;;;;;;;;;;;7.72;100.00;99606.72;5577369;31;34451;-71
2022/11/05 01:32:31;;;;;;;;;;;;;;;7.73;100.00;99610.19;5591238;31;34702;-71
2022/11/05 01:35:38;;;;;;;;;;;;;;;7.71;100.00;99606.88;5591175;31;34793;-73
2022/11/05 01:38:45;;;;;;;;;;;;;;;7.75;100.00;99613.47;5591075;31;34568;-72
2022/11/05 01:41:52;;;;;;;;;;;;;;;7.71;100.00;99615.62;5591117;31;34234;-71
2022/11/05 01:45:06;;;;;;;;;;;;;;;7.67;100.00;99608.22;5577112;31;35161;-71
2022/11/05 01:48:17;;;;;;;;;;;;;;;7.69;100.00;99614.16;5577254;31;34676;-71
2022/11/05 01:51:25;;;;;;;;;;;;;;;7.67;100.00;99622.25;5577043;31;34730;-71
2022/11/05 01:54:34;;;;;;;;;;;;;;;7.67;100.00;99626.69;5576681;31;34515;-72
2022/11/05 01:57:44;;;;;;;;;;;;;;;7.68;100.00;99633.63;5590919;31;35002;-72
2022/11/05 02:00:55;;;;;;;;;;;;;;;7.67;100.00;99635.44;5590938;31;34624;-72
2022/11/05 02:04:07;;;;;;;;;;;;;;;7.67;100.00;99646.00;5590877;31;34872;-72
2022/11/05 02:07:17;;;;;;;;;;;;;;;7.58;100.00;99651.44;5590668;31;34872;-71
2022/11/05 02:10:25;;;;;;;;;;;;;;;7.62;100.00;99663.31;5590903;31;34954;-72
2022/11/05 02:13:35;;;;;;;;;;;;;;;7.61;100.00;99649.28;5576914;31;34549;-72
2022/11/05 02:16:49;;;;;;;;;;;;;;;7.57;100.00;99642.72;5590809;31;34318;-74
2022/11/05 02:20:00;;;;;;;;;;;;;;;7.50;100.00;99647.00;5590633;31;34336;-73
2022/11/05 02:23:25;;;;;;;;;;;;;;;7.47;100.00;99649.13;5576620;31;34097;-71
2022/11/05 02:26:38;;;;;;;;;;;;;;;7.45;100.00;99656.41;5590689;31;34832;-73
2022/11/05 02:29:50;;;;;;;;;;;;;;;7.46;100.00;99639.56;5576064;31;34621;-70
2022/11/05 02:33:16;;;;;;;;;;;;;;;7.38;100.00;99649.16;5590583;31;34865;-70
2022/11/05 02:36:40;;;;;;;;;;;;;;;7.36;100.00;99650.28;5590898;31;34237;-69
2022/11/05 02:39:51;;;;;;;;;;;;;;;7.33;100.00;99663.81;5590605;31;34577;-68
2022/11/05 02:43:01;;;;;;;;;;;;;;;7.35;100.00;99656.59;5576183;31;32793;-68
2022/11/05 02:46:09;;;;;;;;;;;;;;;7.35;100.00;99652.13;5590493;31;34877;-68
2022/11/05 02:49:24;;;;;;;;;;;;;;;7.34;100.00;99654.94;5576119;31;34930;-68
2022/11/05 02:52:41;;;;;;;;;;;;;;;7.33;100.00;99651.47;5590479;31;34327;-67
2022/11/05 02:55:53;;;;;;;;;;;;;;;7.28;100.00;99663.50;5590508;31;34237;-67
2022/11/05 02:59:02;;;;;;;;;;;;;;;7.28;100.00;99664.31;5577435;31;34968;-66
2022/11/05 03:02:07;;;;;;;;;;;;;;;7.28;100.00;99664.31;5590437;31;34221;-66
2022/11/05 03:05:17;;;;;;;;;;;;;;;7.29;100.00;99662.50;5590429;31;34344;-66
2022/11/05 03:08:36;;;;;;;;;;;;;;;7.29;100.00;99665.16;5590162;31;34817;-66
2022/11/05 03:12:05;;;;;;;;;;;;;;;7.26;100.00;99666.28;5590308;31;34263;-68
2022/11/05 03:15:25;;;;;;;;;;;;;;;7.26;100.00;99662.84;5590291;31;34832;-68
2022/11/05 03:18:36;;;;;;;;;;;;;;;7.25;100.00;99667.28;5590443;31;34634;-67
2022/11/05 03:21:52;;;;;;;;;;;;;;;7.26;100.00;99676.03;5590157;31;34221;-67
2022/11/05 03:25:01;;;;;;;;;;;;;;;7.29;100.00;99671.25;5590244;31;35024;-68
2022/11/05 03:28:08;;;;;;;;;;;;;;;7.28;100.00;99684.59;5590204;31;34329;-68
2022/11/05 03:31:15;;;;;;;;;;;;;;;7.28;100.00;99682.78;5590094;31;34189;-67
2022/11/05 03:34:26;;;;;;;;;;;;;;;7.27;100.00;99691.69;5576845;31;34252;-67
2022/11/05 03:37:38;;;;;;;;;;;;;;;7.25;100.00;99679.66;5590213;31;34878;-67
2022/11/05 03:40:46;;;;;;;;;;;;;;;7.20;100.00;99679.31;5590158;31;34885;-68
2022/11/05 03:43:57;;;;;;;;;;;;;;;7.23;100.00;99686.91;5590133;31;34863;-68
2022/11/05 03:47:06;;;;;;;;;;;;;;;7.22;100.00;99693.97;5590035;31;34864;-67
2022/11/05 03:50:19;;;;;;;;;;;;;;;7.22;100.00;99696.63;5589902;31;34287;-66
2022/11/05 03:53:28;;;;;;;;;;;;;;;7.26;100.00;99702.41;5576455;31;34300;-68
2022/11/05 03:56:50;;;;;;;;;;;;;;;7.23;100.00;99705.38;5589787;31;34514;-67
2022/11/05 03:59:58;;;;;;;;;;;;;;;7.22;100.00;99701.06;5575944;31;34090;-67
2022/11/05 04:03:13;;;;;;;;;;;;;;;7.20;100.00;99710.97;5589846;31;34810;-67
2022/11/05 04:13:25;;;;;;;;;;;;;;;7.10;100.00;99703.22;5589725;31;34397;-67
2022/11/05 04:26:48;;;;;;;;;;;;;;;7.04;100.00;99690.66;5589568;31;34822;-67
2022/11/05 04:33:20;;;;;;;;;;;;;;;6.99;100.00;99693.78;5589445;31;34222;-67
2022/11/05 04:36:26;;;;;;;;;;;;;;;7.02;100.00;99700.53;5589406;31;34529;-67
2022/11/05 04:39:33;;;;;;;;;;;;;;;7.00;100.00;99686.69;5589280;31;34829;-68
2022/11/05 04:42:42;;;;;;;;;;;;;;;7.02;100.00;99673.37;5589304;31;34868;-67
2022/11/05 04:45:51;;;;;;;;;;;;;;;6.98;100.00;99678.12;5589266;31;34277;-67
2022/11/05 04:48:59;;;;;;;;;;;;;;;7.03;100.00;99673.19;5589126;31;34282;-67
2022/11/05 04:52:06;;;;;;;;;;;;;;;7.03;100.00;99675.81;5589051;31;35000;-67
2022/11/05 04:55:13;;;;;;;;;;;;;;;6.98;100.00;99683.38;5590968;31;34887;-67
2022/11/05 04:58:22;;;;;;;;;;;;;;;6.96;100.00;99683.56;5591512;31;34315;-67
2022/11/05 05:01:29;;;;;;;;;;;;;;;6.97;100.00;99700.22;5591387;31;35156;-66
2022/11/05 05:04:37;;;;;;;;;;;;;;;6.98;100.00;99697.41;5591515;31;34198;-69
2022/11/05 05:07:46;;;;;;;;;;;;;;;7.02;100.00;99695.25;5578254;31;34648;-68
2022/11/05 05:10:59;;;;;;;;;;;;;;;6.99;100.00;99699.06;5577193;31;35131;-68
2022/11/05 05:14:05;;;;;;;;;;;;;;;6.97;100.00;99693.09;5591696;31;34366;-68
2022/11/05 05:17:12;;;;;;;;;;;;;;;6.95;100.00;99704.81;5591374;31;34664;-68
2022/11/05 05:23:47;;;;;;;;;;;;;;;6.97;100.00;99702.88;5591334;31;34245;-67
2022/11/05 05:26:55;;;;;;;;;;;;;;;6.96;100.00;99701.19;5591236;31;34800;-69
2022/11/05 05:30:02;;;;;;;;;;;;;;;6.91;100.00;99699.06;5590998;31;34877;-70
2022/11/05 05:33:11;;;;;;;;;;;;;;;6.93;100.00;99706.78;5591115;31;34485;-69
2022/11/05 05:36:18;;;;;;;;;;;;;;;6.96;100.00;99706.47;5591331;31;34250;-69
2022/11/05 05:39:23;;;;;;;;;;;;;;;6.93;100.00;99704.16;5577759;31;34444;-69
2022/11/05 05:42:33;;;;;;;;;;;;;;;6.93;100.00;99709.41;5591146;31;34367;-70
2022/11/05 05:45:47;;;;;;;;;;;;;;;6.95;100.00;99712.72;5578725;31;34776;-70
2022/11/05 05:48:54;;;;;;;;;;;;;;;6.95;100.00;99732.03;5591035;31;34284;-70
2022/11/05 05:52:01;;;;;;;;;;;;;;;6.98;100.00;99725.59;5590875;31;34311;-70
2022/11/05 05:55:11;;;;;;;;;;;;;;;7.03;100.00;99714.56;5590897;31;34435;-70
2022/11/05 05:58:19;;;;;;;;;;;;;;;6.99;100.00;99732.50;5590916;31;34344;-71
2022/11/05 06:01:25;;;;;;;;;;;;;;;6.98;100.00;99738.75;5590842;31;34366;-71
2022/11/05 06:04:33;;;;;;;;;;;;;;;7.00;100.00;99755.28;5590132;31;34421;-71
2022/11/05 06:07:43;;;;;;;;;;;;;;;7.04;100.00;99761.88;5590487;31;34904;-71
2022/11/05 06:10:50;;;;;;;;;;;;;;;7.03;100.00;99775.22;5590616;31;34714;-72
2022/11/05 06:13:58;;;;;;;;;;;;;;;7.03;100.00;99770.75;5590767;31;34381;-70
2022/11/05 06:17:05;;;;;;;;;;;;;;;7.05;100.00;99783.81;5590785;31;34881;-72
2022/11/05 06:20:11;;;;;;;;;;;;;;;7.13;100.00;99774.09;5590786;31;34256;-74
2022/11/05 06:23:19;;;;;;;;;;;;;;;7.16;100.00;99775.59;5590724;31;34216;-72
2022/11/05 06:26:24;;;;;;;;;;;;;;;7.20;100.00;99783.03;5590630;31;34295;-72
2022/11/05 06:29:30;;;;;;;;;;;;;;;7.23;100.00;99785.34;5590648;31;34888;-73
2022/11/05 06:32:40;;;;;;;;;;;;;;;7.29;100.00;99782.06;5590657;31;34324;-72
2022/11/05 06:35:50;;;;;;;;;;;;;;;7.37;100.00;99791.78;5576537;31;34976;-73
2022/11/05 06:38:57;;;;;;;;;;;;;;;7.36;100.00;99796.25;5590552;31;34263;-72
2022/11/05 06:42:04;;;;;;;;;;;;;;;7.35;100.00;99799.06;5590499;31;34252;-74
2022/11/05 06:45:26;;;;;;;;;;;;;;;7.26;100.00;99800.84;5590501;31;34818;-73
2022/11/05 06:48:35;;;;;;;;;;;;;;;7.33;100.00;99807.12;5590456;31;35084;-74
2022/11/05 06:51:47;;;;;;;;;;;;;;;7.33;100.00;99819.50;5590397;31;34753;-75
2022/11/05 06:54:56;;;;;;;;;;;;;;;7.28;100.00;99808.59;5576416;31;34286;-74
2022/11/05 06:58:02;;;;;;;;;;;;;;;7.32;100.00;99812.56;5590309;31;34806;-73
2022/11/05 07:01:09;;;;;;;;;;;;;;;7.26;100.00;99819.31;5590224;31;34291;-72
2022/11/05 07:04:19;;;;;;;;;;;;;;;7.31;100.00;99819.66;5576196;31;34360;-73
2022/11/05 07:07:25;;;;;;;;;;;;;;;7.34;100.00;99819.34;5576166;31;34553;-73
2022/11/05 07:10:32;;;;;;;;;;;;;;;7.42;100.00;99814.09;5574831;31;34922;-74
2022/11/05 07:13:39;;;;;;;;;;;;;;;7.47;100.00;99820.69;5576648;31;34211;-73
2022/11/05 07:16:46;;;;;;;;;;;;;;;7.56;100.00;99817.06;5589538;31;34259;-72
2022/11/05 07:19:55;;;;;;;;;;;;;;;7.58;100.00;99817.75;5576347;31;34509;-73
2022/11/05 07:23:03;;;;;;;;;;;;;;;7.57;100.00;99810.81;5590008;31;34108;-73
2022/11/05 07:26:09;;;;;;;;;;;;;;;7.67;100.00;99811.50;5589932;31;34758;-72
2022/11/05 07:29:17;;;;;;;;;;;;;;;7.68;100.00;99813.97;5589997;31;34392;-72
2022/11/05 07:32:23;;;;;;;;;;;;;;;7.68;100.00;99813.97;5589973;31;34191;-72
2022/11/05 07:35:29;;;;;;;;;;;;;;;7.69;100.00;99817.44;5589940;31;34775;-70
2022/11/05 07:38:36;;;;;;;;;;;;;;;7.68;100.00;99821.06;5576270;31;35126;-72
2022/11/05 07:41:42;;;;;;;;;;;;;;;7.78;100.00;99814.66;5590092;31;34334;-73
2022/11/05 07:44:46;;;;;;;;;;;;;;;7.75;100.00;99814.12;5589955;31;34450;-72
2022/11/05 07:47:52;;;;;;;;;;;;;;;7.82;100.00;99821.25;5590117;31;34380;-70
2022/11/05 07:50:59;;;;;;;;;;;;;;;7.84;100.00;99821.91;5575717;31;35516;-70
2022/11/05 07:54:02;;;;;;;;;;;;;;;7.87;100.00;99816.31;5589767;31;34336;-71
2022/11/05 07:57:07;;;;;;;;;;;;;;;7.95;100.00;99825.19;5589786;31;34544;-69
2022/11/05 08:00:13;;;;;;;;;;;;;;;8.08;100.00;99829.03;5589681;31;34306;-71
2022/11/05 08:03:18;;;;;;;;;;;;;;;8.09;100.00;99820.09;5589619;31;34134;-70
2022/11/05 08:06:23;;;;;;;;;;;;;;;8.18;100.00;99816.44;5589758;31;35031;-71
2022/11/05 08:09:28;;;;;;;;;;;;;;;8.24;100.00;99825.53;5575351;31;34762;-69
2022/11/05 08:12:33;;;;;;;;;;;;;;;8.30;100.00;99824.91;5589411;31;34385;-70
2022/11/05 08:15:39;;;;;;;;;;;;;;;8.22;100.00;99824.91;5575468;31;34418;-70
2022/11/05 08:18:47;;;;;;;;;;;;;;;8.30;100.00;99830.19;5589402;31;34314;-70
2022/11/05 08:21:53;;;;;;;;;;;;;;;8.38;100.00;99810.84;5575910;31;34173;-70
2022/11/05 08:25:00;;;;;;;;;;;;;;;8.33;100.00;99821.13;5589507;31;34780;-71
2022/11/05 08:28:11;;;;;;;;;;;;;;;8.45;100.00;99810.03;5588469;31;34234;-68
2022/11/05 08:31:17;;;;;;;;;;;;;;;8.48;100.00;99800.91;5575312;31;34675;-70
2022/11/05 08:34:23;;;;;;;;;;;;;;;8.55;100.00;99807.19;5589621;31;34212;-69
2022/11/05 08:37:29;;;;;;;;;;;;;;;8.70;100.00;99801.06;5575726;31;34934;-69
2022/11/05 08:40:35;;;;;;;;;;;;;;;8.76;100.00;99809.31;5588838;31;35162;-70
2022/11/05 08:43:44;;;;;;;;;;;;;;;8.93;100.00;99816.19;5562367;31;32688;-69
2022/11/05 08:46:52;;;;;;;;;;;;;;;9.01;100.00;99811.66;5574466;31;33876;-70
2022/11/05 08:49:59;;;;;;;;;;;;;;;8.91;100.00;99811.03;5575350;31;34249;-71
2022/11/05 08:53:06;;;;;;;;;;;;;;;9.09;100.00;99808.19;5588949;31;34304;-69
2022/11/05 08:56:13;;;;;;;;;;;;;;;9.10;100.00;99815.12;5589002;31;34997;-70
2022/11/05 08:59:19;;;;;;;;;;;;;;;9.15;100.00;99812.75;5588914;31;34948;-69
2022/11/05 09:02:25;;;;;;;;;;;;;;;9.38;100.00;99811.03;5575174;31;34444;-70
2022/11/05 09:05:31;;;;;;;;;;;;;;;9.50;100.00;99806.97;5562195;31;34134;-70
2022/11/05 09:08:34;;;;;;;;;;;;;;;9.34;100.00;99830.06;5588549;31;34374;-70
2022/11/05 09:11:38;;;;;;;;;;;;;;;9.23;100.00;99825.16;5574256;31;35398;-70
2022/11/05 09:15:01;;;;;;;;;;;;;;;9.04;100.00;99827.22;5574407;31;34875;-70
2022/11/05 09:18:06;;;;;;;;;;;;;;;9.12;100.00;99835.13;5574405;31;35018;-70
2022/11/05 09:21:12;;;;;;;;;;;;;;;9.16;100.00;99844.34;5574298;31;34754;-70
2022/11/05 09:24:16;;;;;;;;;;;;;;;9.32;100.00;99853.22;5561694;31;34808;-68
2022/11/05 09:27:21;;;;;;;;;;;;;;;9.36;100.00;99839.47;5588007;31;34841;-69
2022/11/05 09:30:29;;;;;;;;;;;;;;;9.41;100.00;99854.84;5574255;31;34559;-68
2022/11/05 09:33:36;;;;;;;;;;;;;;;9.52;100.00;99860.59;5588016;31;34898;-69
2022/11/05 09:36:41;;;;;;;;;;;;;;;9.61;100.00;99850.75;5573327;31;34544;-70
2022/11/05 09:39:48;;;;;;;;;;;;;;;9.91;100.00;99855.22;5574200;31;34565;-68
2022/11/05 09:42:53;;;;;;;;;;;;;;;9.85;100.00;99849.78;5590775;31;34386;-69
2022/11/05 09:46:01;;;;;;;;;;;;;;;9.74;100.00;99851.00;5590498;31;34979;-69
2022/11/05 09:49:11;;;;;;;;;;;;;;;10.07;100.00;99853.47;5590353;31;34766;-69
2022/11/05 09:52:27;;;;;;;;;;;;;;;10.18;100.00;99845.09;5576687;31;35612;-69
2022/11/05 09:55:35;;;;;;;;;;;;;;;10.24;100.00;99847.87;5576207;31;35481;-69
2022/11/05 09:58:50;;;;;;;;;;;;;;;10.18;100.00;99845.94;5576726;31;35742;-69
2022/11/05 10:02:03;;;;;;;;;;;;;;;10.44;100.00;99848.19;5590667;31;34985;-68
2022/11/05 10:05:12;;;;;;;;;;;;;;;10.67;100.00;99859.56;5590580;31;34583;-68
2022/11/05 10:08:21;;;;;;;;;;;;;;;10.64;100.00;99846.69;5590408;31;34305;-69
2022/11/05 10:11:34;;;;;;;;;;;;;;;10.66;100.00;99852.62;5590574;31;34181;-69
2022/11/05 10:14:43;;;;;;;;;;;;;;;10.69;100.00;99849.63;5590452;31;35018;-68
2022/11/05 10:17:53;;;;;;;;;;;;;;;10.65;100.00;99847.50;5576551;31;35085;-69
2022/11/05 10:20:57;;;;;;;;;;;;;;;11.13;100.00;99856.78;5590454;31;34354;-69
2022/11/05 10:24:14;;;;;;;;;;;;;;;10.81;100.00;99839.38;5590521;31;34950;-68
2022/11/05 10:27:30;;;;;;;;;;;;;;;10.94;100.00;99836.88;5590719;31;34238;-69
2022/11/05 10:30:36;;;;;;;;;;;;;;;10.80;100.00;99845.66;5590583;31;34904;-69
2022/11/05 10:33:44;;;;;;;;;;;;;;;10.77;100.00;99852.19;5577101;31;34766;-69
2022/11/05 10:36:50;;;;;;;;;;;;;;;10.71;100.00;99855.56;5577009;31;34573;-69
2022/11/05 10:39:59;;;;;;;;;;;;;;;10.89;100.00;99853.34;5590287;31;34878;-68
2022/11/05 10:43:12;;;;;;;;;;;;;;;10.88;100.00;99842.94;5590427;31;34274;-68
2022/11/05 10:46:31;;;;;;;;;;;;;;;10.76;100.00;99852.34;5576343;31;34515;-68
2022/11/05 10:49:49;;;;;;;;;;;;;;;10.82;100.00;99846.31;5576251;31;34565;-68
2022/11/05 10:52:58;;;;;;;;;;;;;;;10.89;100.00;99849.91;5589322;31;34862;-68
2022/11/05 10:56:03;;;;;;;;;;;;;;;11.09;100.00;99860.78;5576362;31;34330;-68
2022/11/05 10:59:25;;;;;;;;;;;;;;;11.04;100.00;99865.81;5590259;31;34336;-68
2022/11/05 11:02:29;;;;;;;;;;;;;;;10.89;100.00;99861.31;5590329;31;34368;-68
2022/11/05 11:05:38;;;;;;;;;;;;;;;10.80;100.00;99867.72;5590567;31;34937;-69
2022/11/05 11:08:42;;;;;;;;;;;;;;;11.06;100.00;99872.59;5590097;31;33676;-67
2022/11/05 11:11:53;;;;;;;;;;;;;;;11.65;100.00;99877.84;5590167;31;34949;-69
2022/11/05 11:15:15;;;;;;;;;;;;;;;11.80;100.00;99877.84;5577309;31;34180;-68
2022/11/05 11:18:26;;;;;;;;;;;;;;;11.50;100.00;99879.69;5575598;31;34976;-68
2022/11/05 11:21:31;;;;;;;;;;;;;;;11.49;100.00;99884.19;5590218;31;34857;-68
2022/11/05 11:24:38;;;;;;;;;;;;;;;11.61;100.00;99887.19;5590026;31;34204;-68
2022/11/05 11:27:45;;;;;;;;;;;;;;;11.34;100.00;99880.72;5576082;31;34382;-69
2022/11/05 11:30:55;;;;;;;;;;;;;;;11.63;100.00;99866.56;5589966;31;34908;-71
2022/11/05 11:34:04;;;;;;;;;;;;;;;11.75;100.00;99867.78;5576048;31;34727;-68
2022/11/05 11:37:14;;;;;;;;;;;;;;;11.92;100.00;99871.84;5563251;31;32326;-68
2022/11/05 11:40:29;;;;;;;;;;;;;;;12.74;100.00;99880.13;5576278;31;35159;-68
2022/11/05 11:43:36;;;;;;;;;;;;;;;12.75;98.98;99878.28;5575671;31;34394;-70
2022/11/05 11:46:49;;;;;;;;;;;;;;;13.39;94.26;99850.44;5576050;31;34969;-69
2022/11/05 11:49:57;;;;;;;;;;;;;;;13.10;95.39;99874.62;5589881;31;35165;-68
2022/11/05 11:53:16;;;;;;;;;;;;;;;12.07;100.00;99879.75;5589636;31;34807;-69
2022/11/05 11:56:23;;;;;;;;;;;;;;;12.11;100.00;99879.19;5575529;31;33964;-68
2022/11/05 11:59:29;;;;;;;;;;;;;;;12.32;100.00;99882.84;5589539;31;34246;-68
2022/11/05 12:02:55;;;;;;;;;;;;;;;12.27;100.00;99869.31;5588338;31;34520;-68
2022/11/05 12:06:14;;;;;;;;;;;;;;;12.47;100.00;99872.97;5589561;31;34978;-69
2022/11/05 12:09:24;;;;;;;;;;;;;;;12.01;100.00;99875.19;5589594;31;34153;-69
2022/11/05 12:12:31;;;;;;;;;;;;;;;11.99;100.00;99864.75;5589371;31;34303;-69
2022/11/05 12:15:38;;;;;;;;;;;;;;;12.16;100.00;99862.66;5589443;31;33805;-69
2022/11/05 12:18:47;;;;;;;;;;;;;;;12.39;100.00;99870.44;5589486;31;34772;-68
2022/11/05 12:22:04;;;;;;;;;;;;;;;12.46;100.00;99874.81;5575425;31;35315;-70
2022/11/05 12:25:20;;;;;;;;;;;;;;;12.14;100.00;99875.34;5589205;31;34378;-70
2022/11/05 12:28:36;;;;;;;;;;;;;;;12.10;100.00;99874.88;5589420;31;34268;-69
2022/11/05 12:32:07;;;;;;;;;;;;;;;11.97;100.00;99887.22;5589305;31;34877;-69
2022/11/05 12:35:38;;;;;;;;;;;;;;;12.04;100.00;99896.91;5562827;31;35211;-69
2022/11/05 12:38:55;;;;;;;;;;;;;;;11.79;100.00;99900.09;5589130;31;34366;-69
2022/11/05 12:42:06;;;;;;;;;;;;;;;11.93;100.00;99907.22;5574913;31;34536;-69
2022/11/05 12:45:22;;;;;;;;;;;;;;;12.00;100.00;99906.28;5589372;31;34265;-69
2022/11/05 12:48:34;;;;;;;;;;;;;;;11.90;100.00;99904.94;5589151;31;34196;-69
2022/11/05 12:51:41;;;;;;;;;;;;;;;12.10;100.00;99911.31;5588914;31;34243;-69
2022/11/05 12:54:59;;;;;;;;;;;;;;;12.12;100.00;99919.88;5575071;31;35385;-70
2022/11/05 12:58:22;;;;;;;;;;;;;;;11.82;100.00;99918.31;5588817;31;34631;-69
2022/11/05 13:01:34;;;;;;;;;;;;;;;11.81;100.00;99925.50;5574719;31;34572;-68
2022/11/05 13:04:49;;;;;;;;;;;;;;;11.95;100.00;99923.81;5588792;31;34743;-68
2022/11/05 13:08:03;;;;;;;;;;;;;;;11.79;100.00;99924.84;5567729;32;34630;-68
2022/11/05 13:11:15;;;;;;;;;;;;;;;11.69;100.00;99940.22;5568239;32;34693;-69
2022/11/05 13:14:40;;;;;;;;;;;;;;;11.94;100.00;99930.97;5568476;32;34273;-68
2022/11/05 13:17:57;;;;;;;;;;;;;;;11.96;100.00;99936.91;5571564;32;34128;-68
2022/11/05 13:21:05;;;;;;;;;;;;;;;11.96;100.00;99936.06;5571359;32;34394;-68
2022/11/05 13:24:20;;;;;;;;;;;;;;;11.83;100.00;99949.22;5571313;32;34200;-68
2022/11/05 13:27:45;;;;;;;;;;;;;;;11.84;100.00;99948.22;5571263;32;34554;-69
2022/11/05 13:31:00;;;;;;;;;;;;;;;11.84;100.00;99941.06;5571422;32;34860;-68
2022/11/05 13:34:10;;;;;;;;;;;;;;;11.75;100.00;99939.53;5571048;32;34742;-69
2022/11/05 13:40:55;;;;;;;;;;;;;;;11.66;100.00;99938.78;5571137;32;34934;-68
2022/11/05 13:44:26;;;;;;;;;;;;;;;11.66;100.00;99932.63;5570954;32;34633;-68
2022/11/05 13:47:53;;;;;;;;;;;;;;;11.60;100.00;99936.84;5570442;32;32792;-69
2022/11/05 13:51:12;;;;;;;;;;;;;;;11.53;100.00;99937.75;5571263;32;34645;-68
2022/11/05 13:54:29;;;;;;;;;;;;;;;11.52;100.00;99944.09;5571306;32;34929;-68
2022/11/05 13:57:55;;;;;;;;;;;;;;;11.45;100.00;99938.69;5570128;32;34471;-69
2022/11/05 14:01:09;;;;;;;;;;;;;;;11.50;100.00;99946.09;5571271;32;35045;-69
2022/11/05 14:04:23;;;;;;;;;;;;;;;11.40;100.00;99950.88;5571081;32;34737;-68
2022/11/05 14:07:31;;;;;;;;;;;;;;;11.36;100.00;99955.75;5577605;31;34614;-68
2022/11/05 14:10:44;;;;;;;;;;;;;;;11.34;100.00;99955.91;5590648;31;34878;-68
2022/11/05 14:13:56;;;;;;;;;;;;;;;11.34;100.00;99953.25;5590782;31;34246;-69
2022/11/05 14:17:10;;;;;;;;;;;;;;;11.34;100.00;99961.22;5590671;31;34322;-69
2022/11/05 14:20:24;;;;;;;;;;;;;;;11.28;100.00;99961.94;5576652;31;34839;-68
2022/11/05 14:23:29;;;;;;;;;;;;;;;11.29;100.00;99955.63;5575991;31;34528;-68
2022/11/05 14:26:36;;;;;;;;;;;;;;;11.29;100.00;99960.12;5576241;31;34815;-69
2022/11/05 14:29:49;;;;;;;;;;;;;;;11.20;100.00;99962.03;5590599;31;34629;-68
2022/11/05 14:33:02;;;;;;;;;;;;;;;11.21;100.00;99973.50;5576298;31;35391;-69
2022/11/05 14:36:19;;;;;;;;;;;;;;;11.25;100.00;99972.13;5590543;31;34930;-67
2022/11/05 14:39:27;;;;;;;;;;;;;;;11.32;100.00;99983.66;5563332;31;33642;-68
2022/11/05 14:42:36;;;;;;;;;;;;;;;11.23;100.00;99985.56;5576193;31;34480;-67
2022/11/05 14:46:02;;;;;;;;;;;;;;;11.33;100.00;99987.94;5576582;31;34954;-68
2022/11/05 14:49:17;;;;;;;;;;;;;;;11.28;100.00;99988.50;5590505;31;34329;-69
2022/11/05 14:52:22;;;;;;;;;;;;;;;11.24;100.00;99992.53;5576450;31;34932;-69
2022/11/05 14:55:31;;;;;;;;;;;;;;;11.24;100.00;99986.37;5576132;31;35446;-68
2022/11/05 14:58:40;;;;;;;;;;;;;;;11.15;100.00;99992.78;5590281;31;34648;-68
2022/11/05 15:01:48;;;;;;;;;;;;;;;11.07;100.00;99985.75;5590240;31;34242;-67
2022/11/05 15:05:14;;;;;;;;;;;;;;;11.20;100.00;99995.72;5590036;31;34781;-68
2022/11/05 15:08:28;;;;;;;;;;;;;;;11.12;100.00;100011.75;5575934;31;34979;-68
2022/11/05 15:11:37;;;;;;;;;;;;;;;11.00;100.00;100002.53;5590355;31;34228;-68
2022/11/05 15:15:08;;;;;;;;;;;;;;;11.01;100.00;100010.34;5589902;31;34868;-67
2022/11/05 15:18:29;;;;;;;;;;;;;;;11.02;100.00;100013.81;5588192;31;34379;-68
2022/11/05 15:21:38;;;;;;;;;;;;;;;11.00;100.00;100006.03;5590139;31;34267;-68
2022/11/05 15:24:43;;;;;;;;;;;;;;;11.10;100.00;100011.91;5589945;31;34701;-68
2022/11/05 15:28:04;;;;;;;;;;;;;;;10.95;100.00;100007.56;5589828;31;34166;-68
2022/11/05 15:31:13;;;;;;;;;;;;;;;10.95;100.00;100007.56;5575749;31;34409;-68
2022/11/05 15:34:34;;;;;;;;;;;;;;;10.87;100.00;100009.31;5575742;31;34828;-68
2022/11/05 15:37:45;;;;;;;;;;;;;;;10.80;100.00;100028.75;5575931;31;34635;-68
2022/11/05 15:41:02;;;;;;;;;;;;;;;10.74;100.00;100022.34;5589884;31;34311;-69
2022/11/05 15:44:21;;;;;;;;;;;;;;;10.59;100.00;100031.25;5576426;31;34899;-69
2022/11/05 15:47:29;;;;;;;;;;;;;;;10.51;100.00;100034.75;5590345;31;34849;-70
2022/11/05 15:50:35;;;;;;;;;;;;;;;10.57;100.00;100026.09;5576117;31;35473;-70
2022/11/05 15:53:48;;;;;;;;;;;;;;;10.46;100.00;100031.81;5575761;31;35478;-70
2022/11/05 15:57:24;;;;;;;;;;;;;;;10.53;100.00;100029.28;5578745;31;34324;-69
2022/11/05 16:00:35;;;;;;;;;;;;;;;10.50;100.00;100041.09;5576389;31;34589;-69
2022/11/05 16:03:44;;;;;;;;;;;;;;;10.46;100.00;100042.41;5575780;31;33983;-69
2022/11/05 16:06:52;;;;;;;;;;;;;;;10.45;100.00;100038.97;5589552;31;34326;-69
2022/11/05 16:10:01;;;;;;;;;;;;;;;10.48;100.00;100045.72;5575508;31;35163;-69
2022/11/05 16:13:22;;;;;;;;;;;;;;;10.49;100.00;100042.09;5589492;31;34732;-69
2022/11/05 16:16:33;;;;;;;;;;;;;;;10.49;100.00;100057.16;5575718;31;34930;-69
2022/11/05 16:19:41;;;;;;;;;;;;;;;10.43;100.00;100051.56;5589334;31;34868;-68
2022/11/05 16:22:52;;;;;;;;;;;;;;;10.41;100.00;100053.56;5589430;31;34210;-68
2022/11/05 16:26:00;;;;;;;;;;;;;;;10.39;100.00;100057.41;5575698;31;34150;-69
2022/11/05 16:29:15;;;;;;;;;;;;;;;10.35;100.00;100064.03;5589420;31;34300;-69
2022/11/05 16:32:24;;;;;;;;;;;;;;;10.23;100.00;100068.91;5589468;31;34665;-69
2022/11/05 16:35:37;;;;;;;;;;;;;;;10.15;100.00;100073.38;5589257;31;34329;-69
2022/11/05 16:38:44;;;;;;;;;;;;;;;10.11;100.00;100074.72;5575446;31;34892;-70
2022/11/05 16:41:50;;;;;;;;;;;;;;;10.07;100.00;100081.37;5589245;31;34939;-69
2022/11/05 16:44:56;;;;;;;;;;;;;;;10.05;100.00;100076.25;5562651;31;35125;-69
2022/11/05 16:48:07;;;;;;;;;;;;;;;9.97;100.00;100079.72;5574702;31;34410;-70
2022/11/05 16:51:18;;;;;;;;;;;;;;;9.86;100.00;100090.72;5576937;31;34295;-70
2022/11/05 16:54:31;;;;;;;;;;;;;;;9.82;100.00;100089.41;5577470;31;34835;-70
2022/11/05 16:57:38;;;;;;;;;;;;;;;9.77;100.00;100093.56;5577695;31;35302;-71
2022/11/05 17:00:46;;;;;;;;;;;;;;;9.78;100.00;100093.38;5591394;31;34647;-71
2022/11/05 17:03:52;;;;;;;;;;;;;;;9.62;100.00;100105.84;5591459;31;34312;-72
2022/11/05 17:07:01;;;;;;;;;;;;;;;9.54;100.00;100106.66;5591233;31;34712;-71
2022/11/05 17:10:07;;;;;;;;;;;;;;;9.43;100.00;100107.84;5576953;31;34526;-71
2022/11/05 17:13:15;;;;;;;;;;;;;;;9.37;100.00;100110.34;5577171;31;34705;-71
2022/11/05 17:16:21;;;;;;;;;;;;;;;9.24;100.00;100117.94;5591429;31;34201;-71